createdAt,value
2018-12-03T00:01:56.966Z,8.60
2018-12-03T00:07:01.351Z,8.60
2018-12-03T00:12:06.117Z,8.70
2018-12-03T00:17:10.543Z,8.90
2018-12-03T00:22:14.961Z,9.00
2018-12-03T00:27:19.355Z,9.00
2018-12-03T00:32:23.770Z,9.10
2018-12-03T00:37:28.204Z,9.20
2018-12-03T00:42:32.603Z,9.20
2018-12-03T00:47:36.991Z,9.20
2018-12-03T00:52:41.401Z,9.30
2018-12-03T00:57:45.805Z,9.30
2018-12-03T01:02:50.211Z,9.20
2018-12-03T01:07:54.603Z,9.10
2018-12-03T01:12:59.000Z,9.10
2018-12-03T01:18:03.391Z,9.10
2018-12-03T01:23:07.798Z,9.10
2018-12-03T01:28:12.192Z,9.00
2018-12-03T01:33:16.584Z,9.00
2018-12-03T01:38:20.995Z,9.10
2018-12-03T01:43:25.422Z,9.20
2018-12-03T01:48:29.828Z,9.30
2018-12-03T01:53:34.229Z,9.40
2018-12-03T01:58:38.618Z,9.50
2018-12-03T02:03:43.016Z,9.50
2018-12-03T02:08:47.412Z,9.60
2018-12-03T02:13:51.809Z,9.70
2018-12-03T02:18:56.204Z,9.80
2018-12-03T02:24:00.607Z,9.90
2018-12-03T02:29:05.079Z,9.80
2018-12-03T02:34:09.519Z,9.90
2018-12-03T02:39:13.934Z,9.90
2018-12-03T02:44:18.354Z,9.90
2018-12-03T02:49:22.751Z,9.80
2018-12-03T02:54:27.149Z,9.70
2018-12-03T02:59:31.548Z,9.80
2018-12-03T03:04:35.954Z,9.70
2018-12-03T03:09:40.353Z,9.90
2018-12-03T03:14:44.752Z,10.00
2018-12-03T03:19:49.162Z,10.00
2018-12-03T03:24:53.599Z,10.00
2018-12-03T03:29:58.013Z,10.00
2018-12-03T03:35:02.411Z,9.90
2018-12-03T03:40:14.346Z,10.10
2018-12-03T03:45:22.848Z,10.10
2018-12-03T03:50:30.183Z,10.10
2018-12-03T03:55:34.855Z,10.10
2018-12-03T04:00:39.258Z,10.10
2018-12-03T04:05:43.684Z,10.10
2018-12-03T04:10:48.080Z,10.20
2018-12-03T04:15:52.485Z,10.20
2018-12-03T04:20:56.891Z,10.20
2018-12-03T04:26:01.329Z,10.00
2018-12-03T04:31:05.745Z,10.00
2018-12-03T04:36:10.138Z,10.10
2018-12-03T04:41:14.535Z,10.10
2018-12-03T04:46:18.967Z,10.10
2018-12-03T04:51:23.367Z,10.20
2018-12-03T04:56:27.768Z,10.20
2018-12-03T05:01:32.203Z,10.20
2018-12-03T05:06:36.599Z,10.20
2018-12-03T05:11:41.010Z,10.20
2018-12-03T05:16:45.426Z,10.10
2018-12-03T05:21:49.855Z,10.20
2018-12-03T05:26:54.264Z,10.20
2018-12-03T05:31:58.738Z,10.20
2018-12-03T05:37:03.161Z,10.20
2018-12-03T05:42:07.639Z,10.10
2018-12-03T05:47:12.136Z,10.20
2018-12-03T05:52:17.256Z,10.20
2018-12-03T05:57:21.714Z,10.20
2018-12-03T06:02:26.102Z,10.20
2018-12-03T06:07:30.480Z,10.40
2018-12-03T06:12:34.883Z,10.50
2018-12-03T06:17:39.829Z,10.70
2018-12-03T06:22:44.934Z,10.70
2018-12-03T06:27:49.419Z,10.50
2018-12-03T06:32:53.847Z,10.50
2018-12-03T06:37:58.290Z,10.40
2018-12-03T06:43:02.711Z,10.40
2018-12-03T06:48:17.097Z,10.50
2018-12-03T06:53:21.552Z,10.50
2018-12-03T06:58:26.043Z,10.50
2018-12-03T07:03:30.468Z,10.60
2018-12-03T07:08:34.907Z,10.70
2018-12-03T07:13:39.343Z,10.70
2018-12-03T07:18:43.797Z,10.60
2018-12-03T07:23:48.253Z,10.50
2018-12-03T07:28:52.865Z,10.50
2018-12-03T07:33:57.359Z,10.60
2018-12-03T07:39:01.788Z,10.60
2018-12-03T07:44:06.214Z,10.60
2018-12-03T07:49:10.649Z,10.60
2018-12-03T07:54:15.115Z,10.70
2018-12-03T07:59:19.567Z,10.70
2018-12-03T08:04:24.009Z,10.70
2018-12-03T08:09:28.490Z,10.70
2018-12-03T08:14:32.920Z,10.80
2018-12-03T08:19:37.381Z,10.90
2018-12-03T08:24:41.829Z,10.80
2018-12-03T08:29:46.295Z,10.90
2018-12-03T08:34:50.727Z,11.00
2018-12-03T08:39:55.149Z,11.00
2018-12-03T08:44:59.563Z,11.00
2018-12-03T08:50:05.855Z,11.00
2018-12-03T08:55:12.639Z,11.00
2018-12-03T09:00:25.248Z,11.00
2018-12-03T09:05:32.036Z,11.00
2018-12-03T09:10:36.607Z,11.10
2018-12-03T09:15:41.027Z,11.20
2018-12-03T09:20:45.463Z,11.20
2018-12-03T09:25:50.965Z,11.30
2018-12-03T09:30:55.412Z,11.30
2018-12-03T09:35:59.856Z,11.40
2018-12-03T09:41:05.944Z,11.50
2018-12-03T09:46:08.786Z,11.50
2018-12-03T09:51:13.208Z,11.50
2018-12-03T09:56:17.633Z,11.50
2018-12-03T10:01:22.057Z,11.60
2018-12-03T10:06:26.484Z,11.60
2018-12-03T10:11:31.126Z,11.60
2018-12-03T10:16:36.271Z,11.50
2018-12-03T10:21:40.717Z,11.60
2018-12-03T10:26:45.530Z,11.50
2018-12-03T10:31:50.031Z,11.50
2018-12-03T10:36:58.031Z,11.60
2018-12-03T10:42:11.203Z,11.50
2018-12-03T10:47:15.628Z,11.60
2018-12-03T10:52:22.597Z,11.60
2018-12-03T10:57:27.238Z,11.60
2018-12-03T11:02:39.255Z,11.60
2018-12-03T11:07:43.882Z,11.70
2018-12-03T11:12:52.861Z,11.80
2018-12-03T11:17:57.474Z,11.90
2018-12-03T11:23:02.139Z,11.80
2018-12-03T11:28:11.334Z,11.80
2018-12-03T11:33:21.738Z,11.90
2018-12-03T11:38:49.276Z,12.10
2018-12-03T11:43:53.774Z,12.50
2018-12-03T11:48:58.263Z,12.50
2018-12-03T11:54:02.779Z,12.90
2018-12-03T11:59:07.312Z,12.80
2018-12-03T12:04:11.753Z,12.90
2018-12-03T12:09:21.022Z,12.80
2018-12-03T12:14:25.815Z,12.60
2018-12-03T12:19:30.309Z,12.70
2018-12-03T12:24:34.849Z,13.10
2018-12-03T12:29:39.363Z,13.40
2018-12-03T12:34:43.787Z,13.20
2018-12-03T12:39:48.232Z,13.80
2018-12-03T12:44:52.684Z,13.80
2018-12-03T12:49:57.307Z,13.40
2018-12-03T12:55:01.745Z,13.30
2018-12-03T13:00:12.487Z,12.90
2018-12-03T13:05:17.003Z,13.00
2018-12-03T13:10:21.427Z,13.10
2018-12-03T13:15:25.876Z,13.00
2018-12-03T13:20:30.323Z,13.10
2018-12-03T13:25:34.739Z,13.10
2018-12-03T13:30:39.155Z,12.90
2018-12-03T13:35:43.579Z,12.80
2018-12-03T13:40:47.996Z,12.70
2018-12-03T13:45:52.424Z,12.40
2018-12-03T13:50:56.882Z,12.40
2018-12-03T13:56:01.307Z,12.40
2018-12-03T14:01:05.762Z,12.30
2018-12-03T14:06:17.534Z,12.00
2018-12-03T14:11:39.039Z,11.90
2018-12-03T14:19:08.871Z,11.80
2018-12-03T14:24:17.833Z,11.60
2018-12-03T14:29:22.286Z,11.30
2018-12-03T14:34:28.426Z,11.20
2018-12-03T14:39:32.839Z,11.00
2018-12-03T14:44:37.254Z,11.00
2018-12-03T14:49:41.709Z,10.90
2018-12-03T14:54:46.139Z,10.90
2018-12-03T14:59:50.642Z,10.90
2018-12-03T15:04:55.159Z,10.80
2018-12-03T15:09:59.720Z,10.70
2018-12-03T15:15:05.368Z,10.70
2018-12-03T15:20:09.946Z,10.60
2018-12-03T15:25:15.155Z,10.50
2018-12-03T15:30:20.315Z,10.50
2018-12-03T15:35:24.324Z,10.30
2018-12-03T15:40:28.830Z,10.10
2018-12-03T15:45:33.339Z,10.10
2018-12-03T15:50:37.859Z,10.00
2018-12-03T15:55:42.275Z,10.00
2018-12-03T16:00:46.725Z,9.90
2018-12-03T16:05:51.152Z,9.70
2018-12-03T16:10:55.682Z,9.90
2018-12-03T16:16:00.080Z,10.00
2018-12-03T16:21:04.613Z,10.10
2018-12-03T16:26:09.054Z,10.00
2018-12-03T16:31:13.467Z,10.00
2018-12-03T16:36:17.903Z,10.10
2018-12-03T16:41:22.349Z,10.00
2018-12-03T16:46:26.780Z,9.90
2018-12-03T16:51:31.241Z,9.80
2018-12-03T16:56:35.649Z,9.80
2018-12-03T17:01:40.067Z,9.70
2018-12-03T17:06:44.471Z,9.70
2018-12-03T17:11:49.700Z,9.60
2018-12-03T17:16:54.113Z,9.50
2018-12-03T17:22:20.613Z,9.40
2018-12-03T17:27:25.012Z,9.70
2018-12-03T17:32:29.447Z,9.60
2018-12-03T17:37:33.903Z,9.10
2018-12-03T17:42:38.343Z,8.80
2018-12-03T17:47:43.396Z,8.30
2018-12-03T17:52:47.854Z,8.20
2018-12-03T17:57:52.675Z,8.00
2018-12-03T18:02:57.239Z,8.00
2018-12-03T18:08:01.656Z,8.00
2018-12-03T18:13:06.095Z,8.00
2018-12-03T18:18:10.512Z,7.70
2018-12-03T18:23:15.046Z,7.50
2018-12-03T18:28:19.467Z,7.50
2018-12-03T18:33:23.875Z,7.50
2018-12-03T18:38:28.279Z,7.60
2018-12-03T18:43:32.748Z,7.60
2018-12-03T18:48:37.211Z,7.50
2018-12-03T18:53:41.667Z,7.40
2018-12-03T18:58:56.170Z,7.20
2018-12-03T19:04:00.609Z,7.10
2018-12-03T19:09:07.392Z,6.90
2018-12-03T19:14:11.807Z,6.90
2018-12-03T19:19:16.245Z,6.80
2018-12-03T19:24:20.701Z,6.70
2018-12-03T19:29:25.114Z,6.60
2018-12-03T19:34:29.643Z,6.40
2018-12-03T19:39:34.080Z,6.40
2018-12-03T19:44:38.596Z,7.00
2018-12-03T19:49:43.024Z,7.30
2018-12-03T19:54:48.758Z,7.50
2018-12-03T20:00:00.936Z,7.40
2018-12-03T20:05:06.574Z,7.00
2018-12-03T20:10:12.325Z,6.90
2018-12-03T20:15:17.053Z,6.60
2018-12-03T20:20:28.735Z,6.50
2018-12-03T20:27:02.866Z,6.90
2018-12-03T20:32:35.675Z,7.10
2018-12-03T20:38:07.741Z,7.10
2018-12-03T20:43:18.520Z,6.60
2018-12-03T20:48:35.273Z,6.60
2018-12-03T20:53:46.262Z,6.30
2018-12-03T20:58:51.026Z,6.10
2018-12-03T21:03:55.779Z,6.00
2018-12-03T21:09:00.206Z,5.90
2018-12-03T21:14:04.621Z,5.80
2018-12-03T21:19:09.107Z,5.80
2018-12-03T21:24:13.722Z,6.10
2018-12-03T21:29:18.137Z,6.00
2018-12-03T21:34:22.624Z,5.70
2018-12-03T21:39:27.450Z,5.60
2018-12-03T21:44:31.982Z,5.60
2018-12-03T21:49:36.446Z,5.60
2018-12-03T21:54:40.870Z,5.60
2018-12-03T21:59:45.296Z,5.60
2018-12-03T22:04:49.694Z,5.80
2018-12-03T22:09:54.144Z,6.40
2018-12-03T22:14:58.564Z,6.20
2018-12-03T22:20:02.963Z,6.20
2018-12-03T22:25:07.765Z,6.30
2018-12-03T22:30:12.535Z,6.40
2018-12-03T22:35:16.954Z,6.80
2018-12-03T22:40:21.383Z,7.00
2018-12-03T22:45:25.804Z,7.10
2018-12-03T22:50:30.191Z,7.30
2018-12-03T22:55:34.587Z,7.20
2018-12-03T23:00:39.019Z,7.20
2018-12-03T23:05:43.413Z,7.20
2018-12-03T23:10:47.812Z,7.50
2018-12-03T23:15:52.204Z,7.60
2018-12-03T23:20:56.619Z,7.70
2018-12-03T23:26:01.410Z,7.70
2018-12-03T23:31:05.824Z,7.70
2018-12-03T23:36:10.239Z,7.70
2018-12-03T23:41:14.656Z,7.60
2018-12-03T23:46:19.068Z,7.30
2018-12-03T23:51:23.562Z,7.10
2018-12-03T23:56:27.995Z,7.00
